createdAt,value
2018-03-26T03:01:00.039Z,2.90
2018-03-26T03:03:29.126Z,3.00
2018-03-26T03:05:57.459Z,2.90
2018-03-26T03:08:25.780Z,3.00
2018-03-26T03:10:54.120Z,2.90
2018-03-26T03:13:22.448Z,3.00
2018-03-26T03:15:51.540Z,3.00
2018-03-26T03:18:19.850Z,3.00
2018-03-26T03:20:48.188Z,3.00
2018-03-26T03:23:16.503Z,2.90
2018-03-26T03:25:44.834Z,2.80
2018-03-26T03:28:13.161Z,3.00
2018-03-26T03:30:41.588Z,2.80
2018-03-26T03:33:09.920Z,2.70
2018-03-26T03:35:38.231Z,2.70
2018-03-26T03:38:06.613Z,2.80
2018-03-26T03:40:34.896Z,2.80
2018-03-26T03:43:03.240Z,2.60
2018-03-26T03:45:31.561Z,2.80
2018-03-26T03:47:59.971Z,2.80
2018-03-26T03:50:28.282Z,2.80
2018-03-26T03:52:56.619Z,2.80
2018-03-26T03:55:25.705Z,2.90
2018-03-26T03:57:54.045Z,2.80
2018-03-26T04:00:22.369Z,3.00
2018-03-26T04:02:51.477Z,3.00
2018-03-26T04:05:27.602Z,3.10
2018-03-26T04:07:57.464Z,3.30
2018-03-26T04:10:25.829Z,3.30
2018-03-26T04:12:54.177Z,3.40
2018-03-26T04:15:23.999Z,3.20
2018-03-26T04:17:52.343Z,3.20
2018-03-26T04:20:20.672Z,3.20
2018-03-26T04:22:49.783Z,2.90
2018-03-26T04:25:18.096Z,2.90
2018-03-26T04:27:46.416Z,3.00
2018-03-26T04:30:14.760Z,3.30
2018-03-26T04:32:43.066Z,3.30
2018-03-26T04:35:12.191Z,3.30
2018-03-26T04:37:40.496Z,3.30
2018-03-26T04:40:08.828Z,3.20
2018-03-26T04:42:37.934Z,3.20
2018-03-26T04:45:06.268Z,3.20
2018-03-26T04:47:34.585Z,3.30
2018-03-26T04:50:03.690Z,3.30
2018-03-26T04:52:32.014Z,3.30
2018-03-26T04:55:00.356Z,3.50
2018-03-26T04:57:28.677Z,3.20
2018-03-26T04:59:57.067Z,2.80
2018-03-26T05:02:25.371Z,3.00
2018-03-26T05:04:53.708Z,3.00
2018-03-26T05:07:22.038Z,3.20
2018-03-26T05:09:51.136Z,3.40
2018-03-26T05:12:19.446Z,3.40
2018-03-26T05:14:47.770Z,3.60
2018-03-26T05:17:16.849Z,3.70
2018-03-26T05:19:45.189Z,3.60
2018-03-26T05:22:13.493Z,3.70
2018-03-26T05:24:41.822Z,3.50
2018-03-26T05:27:10.937Z,3.30
2018-03-26T05:29:39.274Z,3.30
2018-03-26T05:32:08.452Z,3.70
2018-03-26T05:34:36.780Z,3.70
2018-03-26T05:37:05.136Z,3.80
2018-03-26T05:39:34.215Z,3.70
2018-03-26T05:42:03.310Z,3.50
2018-03-26T05:44:32.386Z,3.50
2018-03-26T05:47:00.735Z,3.50
2018-03-26T05:49:29.048Z,3.70
2018-03-26T05:51:57.384Z,3.80
2018-03-26T05:54:25.693Z,3.90
2018-03-26T05:56:54.037Z,3.90
2018-03-26T05:59:22.349Z,4.00
2018-03-26T06:01:50.678Z,3.90
2018-03-26T06:04:18.990Z,3.80
2018-03-26T06:06:47.314Z,3.90
2018-03-26T06:09:16.395Z,3.90
2018-03-26T06:11:44.719Z,3.90
2018-03-26T06:14:13.028Z,3.80
2018-03-26T06:19:44.907Z,3.80
2018-03-26T06:22:14.008Z,3.50
2018-03-26T06:24:42.317Z,3.50
2018-03-26T06:27:11.412Z,3.60
2018-03-26T06:29:40.599Z,3.80
2018-03-26T06:32:08.929Z,3.80
2018-03-26T06:34:37.253Z,3.90
2018-03-26T06:40:08.348Z,4.10
2018-03-26T06:42:37.446Z,4.10
2018-03-26T06:45:05.742Z,4.00
2018-03-26T06:47:34.062Z,3.90
2018-03-26T06:50:02.368Z,3.90
2018-03-26T06:52:31.454Z,4.40
2018-03-26T06:55:00.520Z,4.50
2018-03-26T06:57:28.863Z,4.50
2018-03-26T06:59:57.182Z,4.40
2018-03-26T07:02:25.508Z,4.50
2018-03-26T07:04:53.847Z,4.40
2018-03-26T07:07:22.144Z,4.30
2018-03-26T07:09:51.228Z,4.30
2018-03-26T07:12:19.535Z,4.30
2018-03-26T07:14:47.865Z,4.60
2018-03-26T07:17:16.168Z,4.70
2018-03-26T07:19:45.264Z,4.50
2018-03-26T07:22:13.568Z,4.50
2018-03-26T07:24:41.900Z,4.70
2018-03-26T07:27:10.227Z,5.10
2018-03-26T07:29:38.553Z,5.10
2018-03-26T07:32:06.856Z,5.00
2018-03-26T07:34:35.952Z,5.20
2018-03-26T07:37:05.006Z,5.40
2018-03-26T07:39:33.332Z,5.40
2018-03-26T07:42:02.397Z,5.50
2018-03-26T07:44:30.732Z,5.50
2018-03-26T07:46:59.030Z,5.70
2018-03-26T07:49:28.125Z,5.80
2018-03-26T07:51:56.437Z,5.80
2018-03-26T07:54:24.770Z,5.90
2018-03-26T07:56:53.071Z,5.80
2018-03-26T07:59:21.408Z,5.90
2018-03-26T08:01:49.702Z,6.00
2018-03-26T08:04:18.023Z,6.30
2018-03-26T08:06:46.318Z,6.40
2018-03-26T08:09:14.649Z,6.50
2018-03-26T08:11:42.954Z,6.70
2018-03-26T08:14:11.288Z,6.80
2018-03-26T08:16:39.583Z,6.90
2018-03-26T08:19:07.916Z,7.10
2018-03-26T08:21:36.224Z,7.10
2018-03-26T08:24:04.551Z,7.30
2018-03-26T08:26:33.635Z,7.60
2018-03-26T08:29:01.968Z,7.60
2018-03-26T08:31:30.268Z,7.70
2018-03-26T08:33:58.599Z,7.80
2018-03-26T08:36:26.934Z,8.20
2018-03-26T08:38:55.372Z,8.50
2018-03-26T08:41:23.681Z,8.60
2018-03-26T08:43:52.269Z,8.60
2018-03-26T08:46:20.568Z,8.80
2018-03-26T08:48:49.680Z,8.90
2018-03-26T08:51:18.739Z,9.30
2018-03-26T08:53:47.063Z,9.30
2018-03-26T08:56:15.406Z,9.60
2018-03-26T08:58:43.763Z,9.70
2018-03-26T09:01:12.100Z,10.00
2018-03-26T09:03:41.395Z,10.00
2018-03-26T09:06:09.726Z,10.20
2018-03-26T09:08:38.026Z,10.40
2018-03-26T09:11:07.131Z,10.30
2018-03-26T09:13:36.206Z,10.30
2018-03-26T09:16:05.332Z,10.30
2018-03-26T09:18:34.413Z,10.30
2018-03-26T09:21:02.752Z,10.30
2018-03-26T09:23:31.055Z,10.20
2018-03-26T09:25:59.382Z,10.10
2018-03-26T09:28:27.695Z,10.00
2018-03-26T09:30:56.145Z,10.10
2018-03-26T09:33:24.459Z,10.10
2018-03-26T09:35:52.792Z,10.10
2018-03-26T09:38:21.091Z,10.30
2018-03-26T09:40:49.418Z,10.40
2018-03-26T09:43:18.485Z,10.50
2018-03-26T09:45:46.825Z,10.40
2018-03-26T09:48:15.136Z,10.50
2018-03-26T09:50:43.465Z,10.60
2018-03-26T09:53:11.772Z,10.40
2018-03-26T09:55:40.099Z,10.20
2018-03-26T09:58:09.178Z,10.10
2018-03-26T10:00:43.131Z,10.10
2018-03-26T10:03:11.452Z,10.20
2018-03-26T10:05:39.776Z,10.30
2018-03-26T10:08:09.064Z,10.30
2018-03-26T10:10:38.163Z,10.40
2018-03-26T10:13:07.245Z,10.10
2018-03-26T10:15:35.582Z,10.10
2018-03-26T10:18:03.889Z,10.30
2018-03-26T10:20:33.012Z,10.60
2018-03-26T10:23:01.340Z,10.60
2018-03-26T10:25:29.683Z,10.70
2018-03-26T10:27:57.995Z,10.70
2018-03-26T10:30:26.333Z,10.60
2018-03-26T10:32:55.399Z,10.80
2018-03-26T10:35:23.736Z,10.80
2018-03-26T10:37:52.036Z,10.80
2018-03-26T10:40:20.366Z,10.80
2018-03-26T10:42:48.667Z,10.70
2018-03-26T10:45:17.024Z,10.70
2018-03-26T10:47:46.084Z,10.80
2018-03-26T10:50:14.408Z,10.80
2018-03-26T10:52:42.713Z,10.80
2018-03-26T10:55:11.046Z,10.70
2018-03-26T10:57:39.356Z,10.50
2018-03-26T11:00:08.521Z,10.50
2018-03-26T11:02:36.843Z,10.40
2018-03-26T11:05:05.994Z,10.70
2018-03-26T11:07:35.060Z,10.50
2018-03-26T11:10:03.394Z,10.50
2018-03-26T11:12:31.713Z,10.40
2018-03-26T11:15:00.060Z,10.50
2018-03-26T11:17:28.358Z,10.50
2018-03-26T11:19:56.703Z,10.40
2018-03-26T11:22:25.017Z,10.30
2018-03-26T11:24:53.335Z,10.30
2018-03-26T11:27:21.664Z,10.20
2018-03-26T11:29:50.004Z,10.10
2018-03-26T11:32:18.306Z,10.20
2018-03-26T11:34:46.610Z,10.30
2018-03-26T11:37:14.937Z,10.30
2018-03-26T11:39:43.239Z,10.40
2018-03-26T11:42:11.633Z,10.60
2018-03-26T11:44:39.949Z,10.50
2018-03-26T11:47:09.046Z,10.30
2018-03-26T11:49:37.365Z,10.30
2018-03-26T11:52:05.708Z,10.50
2018-03-26T11:54:34.040Z,10.50
2018-03-26T11:57:02.367Z,10.70
2018-03-26T11:59:30.676Z,10.50
2018-03-26T12:01:59.020Z,10.30
2018-03-26T12:04:27.367Z,10.30
2018-03-26T12:06:55.697Z,10.10
2018-03-26T12:09:24.013Z,10.00
2018-03-26T12:11:52.348Z,10.20
2018-03-26T12:14:20.660Z,10.20
2018-03-26T12:16:48.982Z,10.20
2018-03-26T12:19:18.057Z,10.20
2018-03-26T12:21:47.175Z,10.10
2018-03-26T12:24:28.246Z,10.20
2018-03-26T12:26:57.358Z,10.10
2018-03-26T12:29:37.657Z,10.00
2018-03-26T12:32:05.993Z,10.10
2018-03-26T12:34:46.058Z,10.00
2018-03-26T12:37:14.399Z,9.90
2018-03-26T12:39:43.482Z,10.10
2018-03-26T12:42:12.593Z,10.10
2018-03-26T12:44:53.410Z,10.30
2018-03-26T12:47:21.748Z,10.30
2018-03-26T12:49:50.820Z,9.90
2018-03-26T12:52:31.080Z,9.90
2018-03-26T12:54:59.386Z,9.90
2018-03-26T12:57:40.307Z,9.80
2018-03-26T13:00:08.684Z,9.80
2018-03-26T13:02:36.956Z,9.90
2018-03-26T13:05:05.255Z,9.90
2018-03-26T13:07:33.580Z,10.10
2018-03-26T13:10:01.893Z,9.80
2018-03-26T13:12:30.242Z,9.70
2018-03-26T13:14:58.555Z,10.00
2018-03-26T13:17:26.879Z,10.10
2018-03-26T13:19:55.973Z,10.20
2018-03-26T13:22:25.073Z,10.20
2018-03-26T13:24:54.140Z,10.20
2018-03-26T13:27:22.480Z,10.20
2018-03-26T13:29:50.796Z,10.20
2018-03-26T13:32:19.122Z,10.20
2018-03-26T13:34:47.437Z,10.20
2018-03-26T13:37:15.768Z,10.10
2018-03-26T13:39:44.069Z,9.90
2018-03-26T13:42:12.405Z,10.10
2018-03-26T13:44:41.501Z,9.60
2018-03-26T13:47:10.572Z,9.70
2018-03-26T13:49:38.907Z,9.70
2018-03-26T13:52:07.206Z,9.70
2018-03-26T13:54:35.541Z,9.80
2018-03-26T13:57:03.868Z,9.60
2018-03-26T13:59:32.191Z,9.90
2018-03-26T14:02:01.260Z,9.70
2018-03-26T14:04:29.599Z,9.70
2018-03-26T14:06:57.897Z,9.90
2018-03-26T14:09:38.030Z,9.60
2018-03-26T14:12:18.172Z,9.60
2018-03-26T14:14:58.141Z,9.70
2018-03-26T14:17:38.367Z,9.80
2018-03-26T14:20:06.659Z,9.90
2018-03-26T14:22:34.996Z,9.70
2018-03-26T14:25:04.063Z,9.90
2018-03-26T14:27:32.360Z,9.90
2018-03-26T14:30:00.763Z,10.00
2018-03-26T14:32:29.087Z,10.00
2018-03-26T14:35:09.333Z,10.20
2018-03-26T14:37:37.666Z,10.30
2018-03-26T14:40:06.815Z,9.80
2018-03-26T14:42:35.111Z,9.80
2018-03-26T14:45:03.437Z,9.80
2018-03-26T14:47:31.733Z,9.90
2018-03-26T14:50:00.060Z,10.10
2018-03-26T14:52:28.412Z,9.80
2018-03-26T14:54:56.757Z,9.80
2018-03-26T14:57:25.181Z,9.90
2018-03-26T14:59:53.526Z,9.70
2018-03-26T15:02:21.827Z,9.90
2018-03-26T15:04:50.155Z,10.00
2018-03-26T15:07:19.220Z,9.70
2018-03-26T15:09:47.547Z,9.70
2018-03-26T15:12:15.852Z,9.90
2018-03-26T15:14:44.163Z,10.20
2018-03-26T15:17:13.272Z,10.10
2018-03-26T15:19:42.349Z,10.20
2018-03-26T15:22:10.709Z,10.10
2018-03-26T15:24:46.664Z,10.30
2018-03-26T15:27:15.851Z,10.30
2018-03-26T15:29:44.149Z,10.20
2018-03-26T15:32:12.480Z,10.20
2018-03-26T15:34:40.789Z,10.30
2018-03-26T15:37:09.129Z,10.20
2018-03-26T15:39:37.431Z,10.40
2018-03-26T15:42:05.759Z,10.30
2018-03-26T15:44:34.841Z,10.30
2018-03-26T15:47:03.177Z,10.30
2018-03-26T15:49:31.910Z,10.30
2018-03-26T15:52:00.321Z,10.40
2018-03-26T15:54:28.630Z,10.30
2018-03-26T15:56:57.056Z,10.10
2018-03-26T15:59:26.272Z,10.10
2018-03-26T16:01:54.166Z,10.10
2018-03-26T16:04:22.493Z,10.20
2018-03-26T16:06:50.818Z,10.20
2018-03-26T16:09:19.126Z,10.20
2018-03-26T16:11:47.488Z,10.40
2018-03-26T16:14:15.800Z,10.50
2018-03-26T16:16:44.140Z,10.50
2018-03-26T16:19:12.453Z,10.40
2018-03-26T16:21:40.782Z,10.40
2018-03-26T16:24:09.076Z,10.30
2018-03-26T16:26:37.401Z,10.40
2018-03-26T16:29:06.482Z,10.30
2018-03-26T16:31:34.877Z,10.30
2018-03-26T16:34:03.172Z,10.10
2018-03-26T16:36:31.528Z,10.10
2018-03-26T16:39:00.612Z,10.00
2018-03-26T16:41:41.673Z,10.00
2018-03-26T16:44:09.984Z,9.90
2018-03-26T16:46:39.113Z,9.90
2018-03-26T16:49:07.397Z,9.90
2018-03-26T16:51:35.700Z,9.70
2018-03-26T16:54:04.035Z,9.60
2018-03-26T16:56:32.343Z,9.60
2018-03-26T16:59:00.671Z,9.60
2018-03-26T17:01:29.730Z,9.60
2018-03-26T17:03:58.066Z,9.60
2018-03-26T17:06:26.364Z,9.70
2018-03-26T17:08:54.697Z,9.70
2018-03-26T17:11:23.767Z,9.70
2018-03-26T17:13:52.343Z,9.70
2018-03-26T17:16:20.655Z,9.80
2018-03-26T17:18:49.734Z,9.80
2018-03-26T17:21:18.041Z,9.70
2018-03-26T17:23:46.386Z,9.50
2018-03-26T17:26:14.679Z,9.30
2018-03-26T17:28:43.784Z,9.20
2018-03-26T17:31:12.857Z,9.10
2018-03-26T17:33:41.183Z,9.20
2018-03-26T17:36:09.487Z,9.30
2018-03-26T17:38:38.623Z,9.30
2018-03-26T17:41:07.725Z,9.00
2018-03-26T17:43:36.816Z,8.90
2018-03-26T17:46:05.132Z,8.90
2018-03-26T17:48:33.470Z,9.20
2018-03-26T17:51:02.549Z,9.10
2018-03-26T17:53:30.866Z,9.10
2018-03-26T17:55:59.163Z,9.30
2018-03-26T17:58:27.482Z,9.20
2018-03-26T18:00:55.790Z,9.30
2018-03-26T18:03:24.119Z,9.40
2018-03-26T18:05:52.406Z,9.50
2018-03-26T18:08:20.748Z,9.50
2018-03-26T18:10:49.073Z,9.30
2018-03-26T18:13:17.401Z,9.10
2018-03-26T18:15:45.701Z,9.30
2018-03-26T18:18:14.083Z,9.30
2018-03-26T18:20:42.338Z,9.30
2018-03-26T18:23:10.659Z,9.30
2018-03-26T18:25:39.728Z,9.10
2018-03-26T18:28:08.046Z,9.10
2018-03-26T18:30:36.360Z,9.20
2018-03-26T18:33:04.688Z,8.90
2018-03-26T18:35:32.998Z,9.10
2018-03-26T18:38:01.324Z,9.00
2018-03-26T18:40:29.640Z,9.00
2018-03-26T18:42:59.495Z,8.80
2018-03-26T18:45:27.790Z,8.90
2018-03-26T18:47:56.133Z,8.80
2018-03-26T18:50:24.431Z,8.60
2018-03-26T18:52:52.755Z,8.50
2018-03-26T18:55:21.826Z,8.60
2018-03-26T18:57:50.152Z,8.60
2018-03-26T19:00:18.470Z,8.50
2018-03-26T19:02:47.553Z,8.30
2018-03-26T19:05:15.867Z,8.30
2018-03-26T19:07:44.193Z,8.10
2018-03-26T19:10:12.500Z,8.40
2018-03-26T19:12:40.820Z,8.70
2018-03-26T19:15:09.889Z,8.50
2018-03-26T19:17:38.222Z,8.50
2018-03-26T19:20:07.138Z,8.70
2018-03-26T19:22:35.454Z,8.50
2018-03-26T19:25:04.543Z,8.10
2018-03-26T19:27:33.615Z,8.00
2018-03-26T19:30:01.959Z,8.00
2018-03-26T19:32:30.264Z,7.90
2018-03-26T19:34:58.599Z,7.70
2018-03-26T19:37:26.908Z,7.80
2018-03-26T19:39:55.282Z,8.20
2018-03-26T19:42:23.587Z,8.40
2018-03-26T19:44:51.922Z,8.60
2018-03-26T19:47:20.223Z,8.50
2018-03-26T19:49:48.546Z,8.40
2018-03-26T19:52:17.612Z,7.60
2018-03-26T19:54:45.938Z,7.50
2018-03-26T19:57:15.002Z,7.20
2018-03-26T19:59:43.325Z,7.20
2018-03-26T20:02:11.673Z,7.20
2018-03-26T20:04:40.024Z,7.50
2018-03-26T20:07:08.314Z,7.60
2018-03-26T20:09:36.635Z,7.60
2018-03-26T20:12:04.947Z,7.60
2018-03-26T20:14:33.291Z,7.70
2018-03-26T20:17:01.610Z,7.80
2018-03-26T20:19:29.934Z,7.70
2018-03-26T20:21:58.257Z,7.90
2018-03-26T20:24:26.584Z,7.70
2018-03-26T20:26:54.892Z,7.50
2018-03-26T20:29:23.228Z,7.60
2018-03-26T20:31:52.305Z,6.70
2018-03-26T20:34:20.627Z,6.70
2018-03-26T20:36:48.927Z,6.50
2018-03-26T20:39:17.255Z,6.50
2018-03-26T20:41:46.320Z,7.20
2018-03-26T20:44:14.655Z,7.20
2018-03-26T20:46:42.985Z,7.20
2018-03-26T20:49:12.101Z,7.10
2018-03-26T20:51:41.169Z,5.70
2018-03-26T20:54:09.493Z,5.70
2018-03-26T20:56:37.803Z,5.40
2018-03-26T20:59:06.134Z,5.30
2018-03-26T21:01:35.212Z,6.10
2018-03-26T21:04:04.321Z,6.20
2018-03-26T21:06:33.384Z,6.40
2018-03-26T21:09:01.724Z,6.40
2018-03-26T21:11:30.041Z,6.50
2018-03-26T21:13:58.364Z,6.60
2018-03-26T21:16:26.678Z,6.60
2018-03-26T21:18:54.998Z,6.40
2018-03-26T21:21:24.077Z,6.40
2018-03-26T21:23:52.395Z,6.40
2018-03-26T21:26:20.702Z,6.40
2018-03-26T21:28:49.024Z,6.60
2018-03-26T21:31:17.328Z,6.60
2018-03-26T21:33:45.658Z,6.70
2018-03-26T21:36:13.956Z,6.60
2018-03-26T21:38:43.057Z,6.60
2018-03-26T21:41:12.133Z,6.30
2018-03-26T21:43:40.463Z,6.30
2018-03-26T21:46:08.758Z,6.40
2018-03-26T21:48:37.082Z,6.70
2018-03-26T21:51:06.149Z,6.50
2018-03-26T21:53:34.471Z,6.50
2018-03-26T21:56:03.531Z,6.40
2018-03-26T21:58:31.874Z,6.30
2018-03-26T22:01:00.180Z,6.10
2018-03-26T22:03:28.486Z,6.10
2018-03-26T22:05:57.601Z,6.10
2018-03-26T22:08:25.929Z,6.10
2018-03-26T22:10:54.249Z,5.90
2018-03-26T22:13:23.311Z,5.90
2018-03-26T22:15:51.635Z,5.90
2018-03-26T22:18:19.931Z,5.90
2018-03-26T22:20:48.267Z,5.80
2018-03-26T22:23:17.349Z,5.70
2018-03-26T22:25:45.671Z,5.70
2018-03-26T22:28:13.976Z,5.90
2018-03-26T22:30:42.303Z,5.90
2018-03-26T22:33:11.375Z,5.20
2018-03-26T22:35:39.700Z,5.10
2018-03-26T22:38:08.000Z,4.80
2018-03-26T22:40:36.325Z,5.20
2018-03-26T22:43:05.386Z,5.20
2018-03-26T22:45:33.703Z,5.20
2018-03-26T22:48:02.785Z,5.40
2018-03-26T22:50:31.177Z,5.40
